EDT,Max TemperatureF,Mean TemperatureF,Min TemperatureF,Max Dew PointF,MeanDew PointF,Min DewpointF,Max Humidity, Mean Humidity, Min Humidity, Max Sea Level PressureIn, Mean Sea Level PressureIn, Min Sea Level PressureIn, Max VisibilityMiles, Mean VisibilityMiles, Min VisibilityMiles, Max Wind SpeedMPH, Mean Wind SpeedMPH, Max Gust SpeedMPH,PrecipitationIn, CloudCover, Events, WindDirDegrees
2012-10-1,70,56,42,55,46,40,93,73,37,29.97,29.94,29.90,10,9,1,7,1,,0.01,2,Rain,232
2012-10-2,63,60,57,61,59,55,100,93,86,29.99,29.95,29.92,10,3,0,7,3,,1.39,8,Fog-Rain,56
2012-10-3,77,68,62,66,63,61,100,91,71,30.13,30.05,29.96,10,5,0,7,0,,0.03,6,Fog-Rain,232
2012-10-4,77,66,55,68,64,52,100,90,54,30.14,30.12,30.10,10,5,1,10,2,,0.02,5,Rain,296
2012-10-5,79,65,53,57,54,51,93,69,43,30.13,30.06,29.93,10,10,7,13,3,16,0.01,0,,227
2012-10-6,70,57,46,56,50,41,86,67,48,30.07,29.92,29.84,10,10,10,14,6,25,0.00,2,,249
2012-10-7,53,48,44,45,41,37,93,77,61,30.17,30.10,30.05,10,10,8,7,2,,0.03,6,Rain,267
2012-10-8,48,42,36,42,38,34,93,84,68,30.30,30.26,30.19,10,8,5,8,1,,0.03,4,Rain,322
2012-10-9,59,51,45,52,46,41,94,79,62,30.24,30.15,30.07,10,9,2,7,2,,0.00,8,Rain,84
2012-10-10,64,56,46,52,49,38,100,83,48,30.08,30.00,29.86,10,5,1,14,3,24,0.01,6,Rain,255
2012-10-11,59,49,41,36,32,28,74,53,34,30.28,30.20,30.09,10,10,10,13,6,18,0.00,0,,261
2012-10-12,60,46,33,39,33,26,93,66,40,30.47,30.25,30.14,10,10,9,16,3,23,0.00,1,,328
2012-10-13,55,42,28,33,28,25,92,65,34,30.54,30.46,30.32,10,10,10,9,2,,0.00,0,,186
2012-10-14,71,60,51,52,46,36,71,61,47,30.23,30.10,29.91,10,10,10,9,5,16,0.00,4,,201
2012-10-15,68,62,52,60,54,43,87,72,55,29.88,29.76,29.69,10,10,9,10,6,20,0.10,5,Rain,246
2012-10-16,60,50,37,41,39,35,93,67,42,29.95,29.88,29.81,10,10,10,14,5,21,0.00,2,,301
2012-10-17,64,50,35,45,40,33,93,73,43,30.03,29.97,29.93,10,9,4,8,2,,0.00,0,,169
2012-10-18,68,56,46,56,51,44,94,80,45,29.97,29.90,29.83,10,6,1,16,5,22,0.74,4,Rain-Thunderstorm,152
2012-10-19,69,60,53,61,57,52,100,91,73,29.85,29.73,29.62,10,4,0,10,2,17,0.43,7,Fog-Rain-Thunderstorm,297
2012-10-20,62,52,43,48,43,35,100,79,39,29.93,29.76,29.67,10,6,0,13,2,20,0.01,2,Fog,267
2012-10-21,63,54,45,43,39,37,82,64,38,30.13,30.05,29.94,10,10,10,12,5,22,0.00,1,,278
2012-10-22,68,52,37,45,40,35,89,66,33,30.20,30.14,30.10,10,10,10,9,4,,0.00,0,,283
2012-10-23,70,56,44,60,52,42,96,90,73,30.17,30.09,30.05,10,5,2,7,1,,0.06,3,Rain,341
2012-10-24,79,64,48,58,52,46,100,85,40,30.14,30.10,30.05,10,4,0,5,0,,0.01,2,Fog,330
2012-10-25,63,60,57,57,56,55,94,85,75,30.24,30.20,30.14,10,6,2,7,4,,0.00,8,,118
2012-10-26,66,62,59,57,56,54,94,82,65,30.21,30.16,30.08,10,7,2,8,3,,0.00,8,Rain,121
2012-10-27,64,60,55,55,53,51,93,80,65,30.07,29.98,29.90,10,9,6,7,2,,0.00,6,,59
2012-10-28,57,54,51,52,48,43,89,78,59,29.90,29.78,29.65,10,9,6,15,6,22,0.12,7,Rain,19
2012-10-29,54,50,48,51,46,45,94,90,82,29.64,29.01,28.44,10,4,2,33,16,46,3.52,8,Rain,324
2012-10-30,52,46,39,52,38,36,94,87,81,29.46,29.19,28.43,10,9,4,21,11,33,0.64,8,Rain,159
2012-10-31,46,42,39,37,35,34,89,75,65,29.63,29.55,29.46,10,10,10,9,5,,0.01,8,Rain,225